Marquette, MI

7:42 AM EDT on March 29, 2015 (GMT -0400)
Harvey, MI | | Change Station
CLOSE
Current Station
Personal Weather Station
Location: Marquette, MI
Elevation: 725 ft
Nearby Weather Stations
Active Advisory: Special Statement

Elev 725 ft 46.47 °N, 87.37 °W | Updated 10 minutes ago

Mostly Cloudy
Mostly Cloudy
32.0 °F
Feels Like 26 °F
N
6.0
Wind Variable Wind from South
Gusts 21.0 mph

Today
High -- | Low -- °F
--% Chance of Precip.
Yesterday
High -- | Low -- °F
Precip. -- in
7:35 AM 8:14 PM
Waxing Gibbous, 71% visible
Pressure 29.87 in
Visibility 10.0 miles
Clouds Mostly Cloudy 11000 ft
Windchill 26 °F
Dew Point 17 °F
Humidity 55%
Rainfall 0.00 in
Snow Depth Not available.
UV 0.0 out of 12
Pollen 2.30 out of 12
Air Quality Not available.
Flu Activity Not available.
METAR KSAW 291045Z 20011KT 10SM BKN110 M03/M09 A2987

More Conditions Fewer Conditions

Pressure 29.87 in
Visibility 10.0 miles
Clouds Mostly Cloudy 11000 ft
Windchill 26 °F
Dew Point 17 °F
Humidity 55%
Rainfall 0.00 in
Snow Depth Not available.
UV 0.0 out of 12
Pollen 2.30 out of 12
Air Quality Not available.
Flu Activity Not available.
METAR KSAW 291045Z 20011KT 10SM BKN110 M03/M09 A2987

More Conditions Fewer Conditions

10-Day Weather Forecast

Almanac

Astronomy

Mar. 29, 2015 Rise Set
Actual Time
Civil Twilight
Nautical Twilight
Astronomical Twilight
Moon
Length of Visible Light
Length of Day
Tomorrow will be .
, % of the Moon is Illuminated

Today's Extremes

State Highs State Lows

Community

WunderPhotos

Upload Photos

1,809,224 photos uploaded!

WunderBlogs® & News

Nearby

Air Quality

  Air Quality AQ Index Pollutant
Not available.

Snow Depth

Station Depth Elevation

Earthquake Activity

City Distance Mag. Time & Date
Minimum magnitude displayed is 2.5.

Coastal Water Temperatures

Place Temperature

Stations

Nearby Weather Stations

Station Location Temp. Windchill Dew Point Humidity Wind Precip. Elev Updated Type
                   
Special Statement
Statement as of 4:27 AM EDT on March 29, 2015

... Snow and mixed precipitation moving in this morning...

Expect a period of snow moving into the west by 8 am... and central
Upper Michigan by 11 am. The snow may be mixed with sleet or rain at
the onset over the west. Look for snow accumulations of an inch or
two of wet heavy snow before the snow diminishes or changes over to
light rain or drizzle by mid afternoon. The slushy snow may cause
hazardous driving conditions until temperatures climb into the mid
and upper 30s by mid afternoon.

The low pressure system will also produce brisk south winds this
morning with gusts of 25 to 35 mph. As a cold front moves through
late today and this evening... winds will become gusty from the west
shifting to the northwest. Wind gusts of 30 to 40 mph are
possible... especially over the higher terrain of the Keweenaw
peninsula and near Lake Superior east of Marquette.


Jlb